Member area
Imprimable
Braine le comte, 20/02/2016, BEL - Trail Des Bosses
List of reports > 25km - Result
Search: Page: [1]
157 Entries
 
Complains are not accepted anymore. Results are final.
PlaceNrNameAgeNATTeamRealTimeTkmMoy.ScrCity
1.205DEBASTE Frédéric35BELRCB1:53:361:53:364:33 13.212JETTE
2.188CLAM Simon32BELCOM'IN TRI1:58:051:58:054:44 12.703FLOBECQ
3.683LEYN Donovan22BEL2:04:192:04:234:59 12.064MENEN
4.287DURIEU Antoine33BELSURICATE RUNNERS2:05:002:05:035:01 12.006BRAINE LE CHATEAU
5.696GIVRON Régis Robert26BELJC THIMEON2:05:282:05:325:02 11.957CHARLEROI
6.459MOULIN Jordy28BEL2:07:412:07:425:07 11.758KAIN
7.164CAMPION Jonas34BEL2:08:392:08:425:09 11.6610COURT ST ETIENNE
8.187CLAM Pierre37BELSPORTOASE TRIATHLON TEAM2:09:082:09:095:10 11.6211BOSI DE LESSINES
9.363JOBKEN Olivier37BELGAZELLES DE SNEF2:09:392:09:395:12 11.5712BRAINE-LE-COMTE
10.434MAQUET Jean-Charles30BELBATIFER TRIATHLON SAINT-H2:10:062:10:105:13 11.5213LIBRAMONT
11.341HAZETTE Henri32BELADDM2:13:532:13:575:22 11.2016ELLEZELLES
12.479PERZYNA Christophe34BELACLO2:14:052:14:115:23 11.1817SAINT-VAAST
13.230DELERS Maximilien30BELTHEODO TEMPO2:14:372:14:375:24 11.1418MONS
14.649LEBORGNE Michaël31BEL2:14:482:14:525:24 11.1220BAUDOUR
15.571VANAISE Jérôme38BELET CHIÈVRES2:15:062:15:085:25 11.1022OEUDEGHIEN
16.162BUTAYE Olivier35BELDÉ'NIVELLÉS+2:16:072:16:135:27 11.0124NIVELLES
17.576VAN CAMP Laurent39BELTURBO2:16:212:16:255:28 11.0026HENRIPONT
18.321GLORIEUX Jonathan34BEL2:18:382:18:485:34 10.8132ESTAIMPUIS
19.158BUET Thomas34FRA2:20:012:20:105:37 10.7036SCHAERBEEK
20.544SPILIERS Nicolas26BEL2:20:112:20:295:38 10.6837ALSEMBERG
21.643DESCAMPS François35BELTHÉODO TEMPO2:22:362:22:425:43 10.5141MONTIGNIES LEZ LENS
22.106ANCION Pierre-Yves34BEL2:22:452:22:545:43 10.5042SAINT-GILLES
23.627WATTIAUX Coli35BELBORN TO RUN2:23:222:23:295:45 10.4643BAULERS
24.652ROOBAERT Christopher37BEL2:23:462:23:485:46 10.4344NIVELLES
25.253DE SMAELE Nicolas33BELSURICATES RUNNERS2:23:532:23:565:46 10.4245PEISSANT
26.476PEETERS Ben37BEL2:23:382:24:025:46 10.4146GOOIK
27.241DE MÛELENAERE Benoit36BEL2:23:592:24:135:47 10.4048JETTE
28.684VER EECKE Koen37BEL2:25:302:25:355:50 10.3050MEULEBEKE
29.204DEBACQ Jimmy25BELCOMIN TRI2:26:032:26:035:51 10.2753LE BIZET
30.222DE KEYZER Jeremie35BEL2:26:032:26:185:52 10.2555RONSE
31.524SCHULLER Grégory29BELGANT JOGGANS2:27:112:27:135:54 10.1956GANSHOREN
32.413LONEZ Thomas34BEL2:27:362:27:385:55 10.1657BRUXELLES
33.404LETERME Bernard36BEL2:27:262:27:435:55 10.1658MOLENBEEK-ST-JEAN
34.145BOTTE Vinecnt39BELE.T.ENGHIEN2:27:142:27:435:55 10.1659GROOT BIJGAARDEN
35.182CHRISTIAENS Alexandre34BEL2:27:382:27:475:55 10.1560RÈVES
36.464NIEUBOURG Andy28BELOEH2:27:332:27:505:55 10.1561HALLE
37.449METHENIER Anthony32FRARCB2:27:532:27:575:56 10.1462SAINT GILLES
38.603VANNOORENBERGHE Cédric26BELRRTC2:28:232:28:245:57 10.1165SOIGNIES
39.262DEWANDELEER Bart29BELKWB WAMBEEK RUNNING TEAM2:28:262:28:315:57 10.1066VILVOORDE
40.331GRUMERMER Christian39FRAVIKING SOLITAIRE2:28:522:28:555:58 10.0768HASNON
41.407LHEUREUX François35BEL2:28:502:28:575:58 10.0769ECAUSSINNES
42.406LETOT Christophe31BEL2:29:092:29:165:59 10.0570HORNU
43.555TENAUD Valentin36FRALES STUDS2:29:462:29:516:00 10.0171ANDENNE
44.572VANAISE Tommy37BEL2:30:002:30:026:01 10.0072KAIN
45.378LANGOHR Julien35BEL2:30:562:31:016:03 9.9374RIXENSART
46.138BOMPAS Jeremy33BELRJC MONS2:31:082:31:546:05 9.8875HYON
47.640BLONDIAUX Maxime34BEL2:34:062:34:246:11 9.7280WADELINCOURT
48.271DORSIMONT Sébastien39BEL2:34:012:34:426:12 9.7082ECAUSSINNES
49.550TABARY Arduin31BELENFER DES COLLINES2:35:322:36:176:16 9.6087HOVES
50.385LECONTE Simon33BELENFER DES COLLINES / FLOW2:35:352:36:196:16 9.6088TOURNAI
51.258DETOLLENAERE Damien36BELETM MOUSCRON2:36:532:37:016:17 9.5590HERSEAUX
52.293ERNST Xavier32BELRCBT2:37:112:37:166:18 9.5491JETTE
53.211DECHIEF Erwin29BEL/2:37:162:37:356:19 9.5292HALLE
54.538SIMÉONS Patrick35BELNAC2:38:092:38:446:21 9.4596BAISY THY
55.308FRENNET Philippe34BELRCBT2:38:502:38:566:22 9.4497BRUXELLES
56.154BREYNE Guillaume39BELENDURANCE TEAM MOUSCRON2:39:412:39:486:24 9.3999MOUSCRON
57.520SALMIN Francois32BELLES CHARROGNARDS2:40:082:40:206:25 9.36103STREE
58.101ADAMS Jean-Louis38BEL2:41:212:41:276:28 9.29105BRUXELLES
59.345HOLLANTS Johan34BEL2:41:302:41:396:28 9.28106MECHELEN
60.233DELFOSSE François35BEL2:41:372:42:036:29 9.26107BRUXELLES
61.161BURNIAUX François31BEL2:42:172:42:326:31 9.23109UCCLE
62.536SEYNAEVE Frank37BEL2:42:252:42:496:31 9.21110DEURNE
63.529SEBASTIEN Wilputte37BELRRB/TCHAT'S2:43:082:43:176:32 9.19113MORLANWELZ
64.605VANROBAEYS Dominique35BEL2:42:522:43:226:33 9.18114DEINZE
65.534SEVENS Quentin31BELMOUSQUETRAILS2:44:222:44:446:36 9.11118BRAINE-LE-COMTE
66.653TELLIER Christophe34BEL2:44:282:44:536:36 9.10119VILLERS-LA-VILLE
67.236DELMAY Yaël35BELRJC MONS2:44:132:45:006:36 9.09120HARVENG
68.673BIGOON Jean37BEL2:44:342:45:126:37 9.08121COUILLET
69.509ROOSENS Frans28BELMOUSQUETRAILS2:45:542:46:166:40 9.02128BRAINE-LE-COMTE
70.700PIRET Olivier39BELHOC2:45:362:46:286:40 9.01130LOBBES
71.214DECUYPERE Steven32BELOEH2:46:312:46:506:41 8.99132HALLE
72.189CLOQUET Jean-Philippe39BEL2:47:112:47:246:42 8.96135FELUY
73.417MABILLE Olivier37BELVERTIGO2:47:212:47:416:43 8.95136ERBISOEUL
74.372LAHAYE Vincent24BELRUNNIN'GREZ2:47:042:48:036:44 8.93138GREZ-DOICEAU
75.165CAPOUET Mathieu35BEL2:47:022:48:066:44 8.92139LES BONS VILLERS
76.354IKER Francois37BELRUN ATTITUDE - GEMBLOUX2:47:432:48:166:44 8.92140MONT-SAINT-GUIBERT
77.644DESCHUYTENEER Stéphane39BELET CHIÈVRES2:47:232:48:246:45 8.91141ATH
78.485PIGEOLET Vincent36BELTLF2:48:312:48:376:45 8.90142HENNUYERES
79.608VERGNOL Arnaud32FRA2:48:452:49:226:47 8.86146SAINT JOSSE
80.157BRUNIN Adrien35BELNÉANT2:48:572:50:236:49 8.80150MONS
81.598VAN HULLE François31BEL2:51:512:51:526:53 8.73158TOURNAI
82.542SOENEN Wannes35BEL2:51:272:52:056:53 8.72159BORGERHOUT
83.256DE STREEL Géraud24BELRUNNIN'GREZ2:51:112:52:106:54 8.71160BOSSUT
84.217DEFLEUR Kévin31BEL2:52:212:52:316:55 8.70161FOSSES LA VILLE
85.499REVILLOD Sebastien35BELAMBASSADEUR UT4M2:52:222:52:316:55 8.69162ST GERARD
86.634YERNAUX Brice28BEL2:52:012:52:396:55 8.69163BRUSSELS
87.689SEPULCHRE Antoine28BELTEAM 582:52:042:52:416:55 8.69164BRUSSELS
88.203DAVIS Joel30FRA2:52:392:53:136:56 8.66167HUY
89.471PAGNOZZI Fabio39BELACLO2:53:432:53:476:58 8.63170LA LOUVIÈRE
90.289EL HASSANI Marwan23BELUSI2:52:422:53:516:58 8.63171BRUXELLES
91.149BOULET Etienne35BELECUYER2:53:512:53:576:58 8.62172NIVELLES
92.697CABOSART Vincent32BEL2:53:442:54:016:58 8.62173JAMBES
93.319GILTZ Daniel31DEULA GT2:53:122:54:036:58 8.62174MONTZEN
94.130BETTE Sébastien39BELRJC MONS2:53:212:54:066:58 8.62175MONS
95.666VANDENBERGHE Yannick35BEL2:54:222:54:367:00 8.59177GHLIN
96.630WILLOCQ Christopher34BEL2:54:212:54:377:00 8.59178BOUSVAL
97.251DEROUBAIX François32BELPOPUELLES DREAM TEAM2:55:002:55:467:02 8.53182TOURNAI
98.178CHARLIER Benoît33BEL2:56:282:57:007:05 8.48189FELUY
99.248DE PATOUL Simon38BEL2:56:242:57:027:05 8.47190BRUXELLES
100.597VANHEULE Nicolas39BEL2:58:152:58:487:10 8.39198GENVAL
101.194CORNET Emmanuel35BELE.T.ENGHIEN2:59:072:59:327:11 8.36201MARCQ
102.569ULWELING Denis37BELJAMES2:59:152:59:397:12 8.35205HÉVILLERS
103.680SCHILTZ Frederic39BEL3:00:543:01:097:15 8.28214SOMBREFFE
104.365JOURDAIN Pierre34BELJAMES3:01:593:02:147:18 8.23217AISCHE-EN-REFAIL
105.352HUBERT Gilles38BEL3:03:253:03:477:22 8.16220BRUXELLES
106.528SCUBLA Michael29BELCABW3:04:153:04:477:24 8.12224BRAINE LE COMTE
107.535SEYNAEVE Erik38BEL3:04:213:04:567:24 8.11225DEURNE
108.186CLAES Arnaud30BEL3:05:103:05:107:25 8.10227HAINE SAINT PAUL
109.491POLLET Manu30BELLES BRANLEURSOLVAY3:04:593:05:517:27 8.07228IXELLES
110.655WENIN Nicolas33BEL3:05:503:06:157:27 8.05232JAMBES
111.686VANHOEGAERDEN Thierry28BELCOP3:05:213:06:217:28 8.05235LOUVAIN LA NEUVE
112.620VIOLA Joseph39BELBC MANAGE3:06:173:07:147:30 8.01240SAINT-VAAST
113.663PIENS Jerome38BELSWIFT3:08:073:09:147:35 7.93246GENVAL
114.224DELAEY Alexandre38BEL3:08:093:09:167:35 7.93247GENVAL
115.109ANTOINE Luc39BEL3:09:213:09:527:36 7.90251REBECQ
116.587VAN DEN EYNDE Wim36BEL3:09:283:10:077:37 7.89252SINT-JORIS-WINGE
117.691VILAIN Guillaume36BEL3:10:043:10:147:37 7.89253WIERS
118.567T'SIOBBEL Frédéric31BEL3:10:263:10:387:38 7.87261MARBAIS
119.562THYS Laurent39BELTOGISHI DOJO3:10:083:11:027:39 7.85263SOIGNIES
120.549STRUYS Thomas28BEL3:11:233:11:347:40 7.83270MONS
121.196CROHIN Gaëtan37BEL3:11:263:11:567:41 7.82273SOIGNIES
122.347HOOLANS Benoît35BELSPTW3:12:203:12:557:43 7.78276DION-VALMONT
123.356JANQUART Pierre33BEL3:14:133:14:397:48 7.71282NIVELLES
124.631WINS Christophe33BEL3:15:313:15:537:51 7.66290ETTERBEEK
125.129BERTRAND Dominique38BELTHEODO TEMPO3:15:583:16:227:52 7.64291BAUDOUR
126.578VAN CAUSBROUCK Joris25BEL3:16:293:16:567:53 7.62294HENNUYÈRES
127.698WEYMANTS Antoine26BEL3:16:503:17:267:54 7.60296SCHAERBEEK
128.240DEMEULEMEESTER Thomas39BEL3:17:083:18:007:56 7.58300TOURNAI
129.151BOUTRIAUX Michaël38BELETENGHIEN3:18:183:18:537:58 7.54305FOREST
130.593VANDERVEKEN Damien35BEL3:18:323:19:357:59 7.52309LOUPOIGNE
131.682MORITA Kazuhiro25JPN3:22:133:23:058:08 7.39324
132.546STOCKMANS Thibaud38BELNAC3:23:433:24:158:11 7.34330CHASTRE
133.675VAN GOEY Jeroen38BELGENTLOOPT.BE3:24:063:25:078:13 7.31338GENTBRUGGE
134.453MINNE Jonathan32BELUN SOURIRE POUR DEMAIN3:24:453:25:138:13 7.31340BRAINE-LE-COMTE
135.307FREDERIC Chaufoureau38BEL3:24:423:25:158:13 7.31341NIVELLES
136.389LEFEBVRE Pascal36BELTHEODO-TEMPO3:25:023:25:218:13 7.30343SOIGNIES
137.664PÂQUET Olivier27BEL3:27:433:28:058:20 7.213576120
138.390LEFEBVRE Paulin35BELTHEODO TEMPO3:27:593:28:298:21 7.20360SAINT-DENIS
139.153BRENARD Brieuc32BELSPORTKIDS3:28:213:28:498:22 7.18361SOUVRET
140.662MEYVISCH Jean-Christophe39BELPAULINE FOREVER3:28:053:28:588:22 7.18362SOIGNIES
141.311GATTI Nicolas38BEL3:29:253:29:378:24 7.16367JETTE
142.473PARRINI Matteo20ITA3:29:523:30:038:25 7.14368BRAINE-LE-COMTE
143.657DEFER Jean-Claude36BELTHEODO TEMPO3:30:063:30:278:26 7.13369NIMY
144.374LAMBERT Frédéric31BEL3:31:083:32:018:29 7.08379BRAINE-LE-COMTE
145.610VERHOYE Filip36BELACP3:32:423:33:178:32 7.03384GOOIK
146.438MARSELLA Nicolas39BELTHE M&M'S BROTHERS3:35:453:36:028:39 6.94390SAINT-AMAND
147.113BAILLY Jean-Luc39BELTEAM DES CROISÉS3:36:383:37:338:43 6.90396LA LOUVIÈRE
148.532SEMPOUX Gaetan30BELAFC BRAINE3:39:193:40:378:50 6.80399BRAINE-L'ALLEUD
149.123JONNIEAUX Benoît34BELGAZELLES SNEFFOISES3:46:083:47:139:06 6.60422SENEFFE
150.238DELVIGNE Cédric30BEL3:49:093:49:209:11 6.54427BRAINE-LE-COMTE
151.548STREIGNARD Elliot23BEL3:51:173:52:079:18 6.46435SAINT - HUBERT
152.1019PROCUREUR Laurent35BEL4:20:114:20:1310:25 5.76467
153.554TEMPESTA David27ITA4:25:284:25:5610:39 5.64469CLABECQ
154.436MARÉCHAL Julien28BEL4:46:264:47:3911:31 5.21477CUESMES
DSQ427MAINIL Sébastien36BEL3:17:153:17:15ERBISOEUL
DNF155BROGNEZ Laurent37BELCABWCLABECQ
DNF695LÉONET Martin22BELFOSSES LA VILLE
DNF: did not finish; DSQ: disqualified; Speed in km/h
Page: [1]